createdAt,value
2022-08-10T00:00:30.746Z,3.1
2022-08-10T00:01:39.145Z,3.1
2022-08-10T00:02:47.489Z,3.1
2022-08-10T00:03:56.092Z,3.3
2022-08-10T00:05:04.515Z,3.3
2022-08-10T00:06:12.897Z,3.3
2022-08-10T00:07:21.512Z,3.3
2022-08-10T00:08:29.895Z,3.3
2022-08-10T00:09:50.151Z,3.3
2022-08-10T00:10:46.875Z,3.3
2022-08-10T00:11:55.275Z,3.3
2022-08-10T00:13:03.670Z,3.3
2022-08-10T00:14:12.272Z,3.2
2022-08-10T00:15:44.424Z,3.2
2022-08-10T00:16:29.046Z,3.2
2022-08-10T00:17:37.635Z,3.3
2022-08-10T00:18:46.011Z,3.3
2022-08-10T00:20:02.691Z,3.3
2022-08-10T00:21:03.005Z,3.3
2022-08-10T00:22:11.389Z,3.3
2022-08-10T00:23:19.804Z,3.3
2022-08-10T00:24:28.419Z,3.6
2022-08-10T00:25:36.849Z,3.6
2022-08-10T00:27:46.683Z,3.6
2022-08-10T00:28:02.427Z,3.9
2022-08-10T00:29:02.161Z,3.9
2022-08-10T00:30:10.594Z,3.9
2022-08-10T00:31:19.222Z,3.5
2022-08-10T00:32:27.604Z,3.5
2022-08-10T00:33:35.984Z,3.5
2022-08-10T00:34:44.590Z,3.6
2022-08-10T00:35:52.936Z,3.6
2022-08-10T00:37:01.363Z,3.6
2022-08-10T00:38:09.979Z,3.5
2022-08-10T00:39:18.445Z,3.5
2022-08-10T00:40:35.379Z,3.5
2022-08-10T00:41:35.349Z,3.7
2022-08-10T00:42:43.770Z,3.7
2022-08-10T00:43:52.175Z,3.7
2022-08-10T00:45:00.838Z,3.2
2022-08-10T00:46:09.251Z,3.2
2022-08-10T00:47:21.362Z,3.2
2022-08-10T00:48:28.192Z,3.4
2022-08-10T00:49:34.583Z,3.4
2022-08-10T00:50:42.953Z,3.4
2022-08-10T00:51:51.605Z,3.7
2022-08-10T00:52:59.983Z,3.7
2022-08-10T00:54:08.386Z,3.7
2022-08-10T00:55:16.966Z,3.8
2022-08-10T00:56:35.454Z,3.8
2022-08-10T00:57:33.776Z,3.8
2022-08-10T00:58:42.369Z,3.6
2022-08-10T00:59:58.362Z,3.6
2022-08-10T01:00:59.285Z,3.6
2022-08-10T01:02:11.563Z,3.9
2022-08-10T01:03:16.235Z,3.9
2022-08-10T01:04:36.896Z,3.9
2022-08-10T01:05:33.210Z,3.5
2022-08-10T01:06:41.611Z,3.5
2022-08-10T01:07:49.984Z,3.5
2022-08-10T01:08:58.564Z,3.4
2022-08-10T01:10:06.953Z,3.4
2022-08-10T01:12:28.726Z,3.5
2022-08-10T01:12:28.789Z,3.4
2022-08-10T01:13:32.272Z,3.5
2022-08-10T01:14:40.667Z,3.5
2022-08-10T01:15:49.300Z,3.4
2022-08-10T01:16:57.666Z,3.4
2022-08-10T01:18:06.072Z,3.4
2022-08-10T01:19:14.649Z,3.2
2022-08-10T01:20:27.461Z,3.2
2022-08-10T01:21:31.405Z,3.2
2022-08-10T01:22:40.018Z,3.5
2022-08-10T01:23:48.379Z,3.5
2022-08-10T01:24:56.743Z,3.5
2022-08-10T01:26:11.337Z,3.2
2022-08-10T01:27:13.723Z,3.2
2022-08-10T01:28:22.086Z,3.2
2022-08-10T01:29:30.702Z,3.5
2022-08-10T01:30:39.072Z,3.5
2022-08-10T01:31:47.501Z,3.5
2022-08-10T01:32:56.095Z,3.8
2022-08-10T01:34:04.482Z,3.8
2022-08-10T01:35:12.889Z,3.8
2022-08-10T01:36:21.457Z,4.2
2022-08-10T01:37:29.846Z,4.2
2022-08-10T01:38:38.255Z,4.2
2022-08-10T01:39:46.924Z,4
2022-08-10T01:40:55.245Z,4
2022-08-10T01:42:03.624Z,4
2022-08-10T01:43:12.240Z,4
2022-08-10T01:44:20.603Z,4
2022-08-10T01:45:28.987Z,4
2022-08-10T01:46:37.598Z,3.9
2022-08-10T01:47:45.991Z,3.9
2022-08-10T01:48:54.341Z,3.9
2022-08-10T01:50:02.957Z,3.9
2022-08-10T01:51:11.335Z,3.9
2022-08-10T01:52:19.738Z,3.9
2022-08-10T01:53:28.327Z,4.1
2022-08-10T01:54:36.712Z,4.1
2022-08-10T01:55:45.066Z,4.1
2022-08-10T01:56:53.682Z,3.6
2022-08-10T01:58:02.033Z,3.6
2022-08-10T01:59:10.389Z,3.6
2022-08-10T02:00:18.963Z,4.1
2022-08-10T02:01:27.364Z,4.1
2022-08-10T02:02:35.936Z,4.1
2022-08-10T02:04:01.741Z,3.8
2022-08-10T02:04:52.742Z,3.8
2022-08-10T02:06:01.117Z,3.8
2022-08-10T02:07:09.704Z,3.8
2022-08-10T02:08:18.081Z,3.8
2022-08-10T02:09:26.505Z,3.8
2022-08-10T02:10:35.062Z,3.8
2022-08-10T02:11:56.094Z,3.8
2022-08-10T02:12:51.839Z,3.8
2022-08-10T02:14:00.422Z,4.1
2022-08-10T02:15:08.797Z,4.1
2022-08-10T02:16:17.211Z,4.1
2022-08-10T02:17:57.275Z,4.5
2022-08-10T02:18:34.228Z,4.5
2022-08-10T02:19:42.580Z,4.5
2022-08-10T02:20:51.173Z,4.1
2022-08-10T02:22:09.370Z,4.1
2022-08-10T02:23:07.986Z,4.1
2022-08-10T02:24:16.563Z,4.1
2022-08-10T02:25:40.466Z,4.1
2022-08-10T02:26:33.330Z,4.1
2022-08-10T02:27:41.924Z,4.4
2022-08-10T02:28:50.334Z,4.4
2022-08-10T02:29:58.709Z,4.4
2022-08-10T02:31:07.277Z,4.3
2022-08-10T02:32:15.880Z,4.3
2022-08-10T02:33:24.035Z,4.3
2022-08-10T02:34:32.602Z,4.6
2022-08-10T02:35:53.986Z,4.6
2022-08-10T02:36:49.357Z,4.6
2022-08-10T02:37:57.977Z,5
2022-08-10T02:39:06.445Z,5
2022-08-10T02:42:19.349Z,4.7
2022-08-10T02:42:19.553Z,5
2022-08-10T02:45:16.428Z,4.7
2022-08-10T02:45:24.906Z,4.7
2022-08-10T02:45:25.271Z,4.9
2022-08-10T02:45:57.065Z,4.9
2022-08-10T02:47:05.473Z,4.9
2022-08-10T02:48:14.057Z,4.4
2022-08-10T02:49:22.454Z,4.4
2022-08-10T02:50:30.857Z,4.4
2022-08-10T02:52:05.840Z,4.4
2022-08-10T02:52:47.853Z,4.4
2022-08-10T02:53:57.299Z,4.4
2022-08-10T02:55:06.155Z,4.4
2022-08-10T02:56:13.194Z,4.4
2022-08-10T02:57:21.606Z,4.4
2022-08-10T02:58:30.187Z,4.9
2022-08-10T02:59:39.822Z,4.9
2022-08-10T03:00:46.999Z,4.9
2022-08-10T03:01:55.529Z,4.7
2022-08-10T03:03:03.893Z,4.7
2022-08-10T03:04:12.255Z,4.7
2022-08-10T03:05:20.840Z,4.6
2022-08-10T03:06:29.222Z,4.6
2022-08-10T03:07:44.204Z,4.6
2022-08-10T03:08:46.171Z,4.6
2022-08-10T03:09:54.557Z,4.6
2022-08-10T03:11:02.945Z,4.6
2022-08-10T03:12:16.589Z,4.5
2022-08-10T03:13:19.940Z,4.5
2022-08-10T03:14:28.305Z,4.5
2022-08-10T03:15:36.905Z,4.4
2022-08-10T03:16:45.243Z,4.4
2022-08-10T03:17:56.725Z,4.4
2022-08-10T03:19:02.236Z,4.8
2022-08-10T03:20:36.224Z,4.8
2022-08-10T03:21:18.995Z,4.8
2022-08-10T03:22:27.598Z,5
2022-08-10T03:23:35.985Z,5
2022-08-10T03:24:44.347Z,5
2022-08-10T03:25:54.711Z,5
2022-08-10T03:27:01.346Z,5
2022-08-10T03:28:09.682Z,5
2022-08-10T03:29:18.279Z,4.8
2022-08-10T03:30:33.170Z,4.8
2022-08-10T03:31:35.093Z,4.8
2022-08-10T03:32:43.672Z,4.9
2022-08-10T03:33:52.042Z,4.9
2022-08-10T03:35:00.420Z,4.9
2022-08-10T03:36:41.181Z,5.1
2022-08-10T03:37:17.575Z,5.1
2022-08-10T03:38:25.997Z,5.1
2022-08-10T03:39:34.666Z,5.4
2022-08-10T03:40:45.037Z,5.4
2022-08-10T03:41:53.376Z,5.4
2022-08-10T03:42:59.935Z,4.9
2022-08-10T03:44:08.319Z,4.9
2022-08-10T03:45:16.698Z,4.9
2022-08-10T03:46:25.271Z,5.4
2022-08-10T03:47:33.663Z,5.4
2022-08-10T03:48:44.584Z,5.4
2022-08-10T03:49:50.675Z,5.1
2022-08-10T03:50:59.124Z,5.1
2022-08-10T03:52:07.511Z,5.1
2022-08-10T03:53:24.268Z,5
2022-08-10T03:54:24.489Z,5
2022-08-10T03:56:27.601Z,5
2022-08-10T03:56:41.475Z,4.8
2022-08-10T03:57:49.921Z,4.8
2022-08-10T03:58:58.271Z,4.8
2022-08-10T04:00:06.863Z,5.1
2022-08-10T04:01:15.263Z,5.1
2022-08-10T04:02:42.737Z,5.1
2022-08-10T04:03:32.200Z,4.8
2022-08-10T04:04:40.603Z,4.8
2022-08-10T04:05:49.001Z,4.8
2022-08-10T04:06:57.600Z,5.4
2022-08-10T04:08:05.985Z,5.4
2022-08-10T04:09:14.375Z,5.4
2022-08-10T04:10:22.937Z,4.9
2022-08-10T04:11:31.999Z,4.9
2022-08-10T04:12:40.401Z,4.9
2022-08-10T04:13:48.984Z,4.9
2022-08-10T04:14:57.364Z,4.9
2022-08-10T04:16:07.400Z,4.9
2022-08-10T04:17:14.366Z,5.1
2022-08-10T04:18:22.677Z,5.1
2022-08-10T04:19:31.085Z,5.1
2022-08-10T04:20:39.663Z,5.9
2022-08-10T04:21:48.044Z,5.9
2022-08-10T04:22:56.417Z,5.9
2022-08-10T04:24:04.982Z,5.7
2022-08-10T04:25:13.352Z,5.7
2022-08-10T04:26:21.727Z,5.7
2022-08-10T04:27:30.299Z,5.4
2022-08-10T04:28:38.673Z,5.4
2022-08-10T04:29:47.063Z,5.4
2022-08-10T04:30:55.650Z,4.8
2022-08-10T04:32:04.029Z,4.8
2022-08-10T04:33:12.401Z,4.8
2022-08-10T04:34:20.983Z,5.2
2022-08-10T04:35:29.339Z,5.2
2022-08-10T04:36:37.716Z,5.2
2022-08-10T04:37:46.979Z,4.9
2022-08-10T04:38:54.688Z,4.9
2022-08-10T04:40:03.050Z,4.9
2022-08-10T04:41:11.656Z,6.7
2022-08-10T04:42:20.020Z,6.7
2022-08-10T04:43:28.375Z,6.7
2022-08-10T04:44:36.954Z,6.7
2022-08-10T04:45:48.199Z,6.7
2022-08-10T04:46:55.607Z,6.7
2022-08-10T04:48:03.438Z,6.1
2022-08-10T04:49:17.072Z,6.1
2022-08-10T04:50:19.024Z,6.1
2022-08-10T04:51:27.645Z,5.9
2022-08-10T04:52:36.277Z,5.9
2022-08-10T04:54:03.366Z,5.9
2022-08-10T04:54:53.018Z,6
2022-08-10T04:56:01.427Z,6
2022-08-10T04:57:09.790Z,6
2022-08-10T04:58:18.391Z,5.7
2022-08-10T04:59:26.739Z,5.7
2022-08-10T05:00:35.180Z,5.7
2022-08-10T05:02:10.003Z,6
2022-08-10T05:02:52.105Z,6
2022-08-10T05:04:32.804Z,6
2022-08-10T05:05:09.031Z,5.6
2022-08-10T05:06:17.416Z,5.6
2022-08-10T05:07:25.791Z,5.6
2022-08-10T05:08:34.375Z,5.2
2022-08-10T05:10:00.657Z,5.2
2022-08-10T05:10:51.133Z,5.2
2022-08-10T05:11:59.709Z,5.3
2022-08-10T05:13:08.079Z,5.3
2022-08-10T05:14:16.446Z,5.3
2022-08-10T05:15:25.010Z,4.8
2022-08-10T05:16:33.422Z,4.8
2022-08-10T05:17:42.724Z,4.8
2022-08-10T05:18:50.369Z,5.4
2022-08-10T05:20:02.728Z,5.4
2022-08-10T05:21:07.121Z,5.4
2022-08-10T05:22:15.708Z,5.6
2022-08-10T05:23:24.099Z,5.6
2022-08-10T05:24:32.476Z,5.6
2022-08-10T05:25:41.089Z,5.2
2022-08-10T05:26:55.097Z,5.2
2022-08-10T05:27:57.879Z,5.2
2022-08-10T05:29:06.392Z,5.4
2022-08-10T05:30:14.767Z,5.4
2022-08-10T05:31:23.909Z,5.4
2022-08-10T05:32:31.689Z,5.1
2022-08-10T05:33:40.080Z,5.1
2022-08-10T05:34:48.457Z,5.1
2022-08-10T05:35:58.337Z,5.7
2022-08-10T05:37:05.440Z,5.7
2022-08-10T05:38:14.726Z,5.7
2022-08-10T05:39:25.321Z,5.2
2022-08-10T05:40:30.784Z,5.2
2022-08-10T05:41:42.740Z,5.2
2022-08-10T05:42:47.760Z,5
2022-08-10T05:43:56.164Z,5
2022-08-10T05:45:04.557Z,5
2022-08-10T05:46:16.348Z,5.2
2022-08-10T05:47:21.506Z,5.2
2022-08-10T05:48:41.132Z,5.2
2022-08-10T05:49:38.533Z,5
2022-08-10T05:50:46.964Z,5
2022-08-10T05:51:56.028Z,5
2022-08-10T05:53:23.130Z,6.3
2022-08-10T05:54:13.003Z,6.3
2022-08-10T05:55:21.396Z,6.3
2022-08-10T05:56:53.029Z,4.7
2022-08-10T05:57:38.358Z,4.7
2022-08-10T05:58:46.761Z,4.7
2022-08-10T06:00:09.536Z,4.5
2022-08-10T06:01:03.787Z,4.5
2022-08-10T06:02:32.428Z,4.5
2022-08-10T06:03:23.854Z,4.2
2022-08-10T06:04:29.039Z,4.2
2022-08-10T06:05:37.421Z,4.2
2022-08-10T06:06:46.003Z,4.1
2022-08-10T06:07:54.354Z,4.1
2022-08-10T06:09:02.757Z,4.1
2022-08-10T06:10:11.379Z,3.9
2022-08-10T06:12:25.120Z,3.9
2022-08-10T06:12:30.040Z,3.9
2022-08-10T06:13:53.703Z,3.7
2022-08-10T06:14:48.482Z,3.7
2022-08-10T06:15:53.364Z,3.7
2022-08-10T06:17:01.955Z,4.5
2022-08-10T06:18:10.326Z,4.5
2022-08-10T06:19:18.720Z,4.5
2022-08-10T06:20:27.280Z,24.9
2022-08-10T06:21:35.650Z,24.9
2022-08-10T06:22:44.014Z,24.9
2022-08-10T06:23:52.586Z,4.1
2022-08-10T06:26:13.965Z,4.1
2022-08-10T06:27:17.938Z,4.3
2022-08-10T06:28:26.280Z,4.3
2022-08-10T06:29:34.647Z,4.3
2022-08-10T06:30:43.206Z,3.6
2022-08-10T06:31:51.542Z,3.6
2022-08-10T06:32:59.904Z,3.6
2022-08-10T06:34:08.466Z,3.4
2022-08-10T06:35:16.803Z,3.4
2022-08-10T06:36:25.156Z,3.4
2022-08-10T06:37:33.714Z,3.4
2022-08-10T06:38:42.063Z,3.4
2022-08-10T06:39:50.469Z,3.4
2022-08-10T06:40:58.974Z,3.2
2022-08-10T06:42:15.644Z,3.2
2022-08-10T06:43:15.687Z,3.2
2022-08-10T06:44:24.257Z,2.8
2022-08-10T06:45:32.604Z,2.8
2022-08-10T06:46:43.960Z,2.8
2022-08-10T06:47:49.512Z,2.8
2022-08-10T06:48:57.844Z,2.8
2022-08-10T06:50:08.730Z,2.8
2022-08-10T06:51:14.789Z,3
2022-08-10T06:52:23.121Z,3
2022-08-10T06:53:51.901Z,3
2022-08-10T06:54:40.071Z,3.5
2022-08-10T06:55:50.231Z,3.5
2022-08-10T06:57:17.176Z,3.5
2022-08-10T06:58:05.983Z,3
2022-08-10T06:59:21.096Z,3
2022-08-10T07:00:22.041Z,3
2022-08-10T07:01:30.655Z,3
2022-08-10T07:02:38.957Z,3
2022-08-10T07:03:47.304Z,3
2022-08-10T07:04:55.877Z,2.9
2022-08-10T07:06:04.240Z,2.9
2022-08-10T07:07:12.610Z,2.9
2022-08-10T07:08:21.178Z,3.4
2022-08-10T07:09:29.559Z,3.4
2022-08-10T07:10:41.460Z,3.4
2022-08-10T07:11:46.521Z,3.6
2022-08-10T07:12:54.878Z,3.6
2022-08-10T07:14:15.215Z,3.6
2022-08-10T07:15:11.832Z,3.8
2022-08-10T07:16:20.199Z,3.8
2022-08-10T07:17:28.559Z,3.8
2022-08-10T07:18:37.143Z,4.1
2022-08-10T07:21:17.005Z,4.1
2022-08-10T07:23:00.660Z,4.5
2022-08-10T07:23:56.732Z,4.5
2022-08-10T07:24:48.008Z,4.5
2022-08-10T07:26:21.861Z,4.2
2022-08-10T07:27:59.435Z,4.2
2022-08-10T07:29:04.059Z,4.2
2022-08-10T07:30:16.783Z,3.5
2022-08-10T07:31:31.197Z,3.5
2022-08-10T07:32:33.531Z,3.5
2022-08-10T07:33:49.148Z,2.5
2022-08-10T07:35:01.529Z,2.5
2022-08-10T07:36:15.282Z,2.5
2022-08-10T07:37:29.984Z,2.9
2022-08-10T07:38:51.955Z,2.9
2022-08-10T07:40:03.101Z,2.9
2022-08-10T07:42:45.932Z,2.7
2022-08-10T07:43:52.307Z,2.7
2022-08-10T07:45:03.334Z,2.5
2022-08-10T07:46:14.635Z,2.5
2022-08-10T07:47:46.010Z,2.5
2022-08-10T07:48:48.207Z,2.6
2022-08-10T07:50:22.255Z,2.6
2022-08-10T07:53:20.028Z,2.2
2022-08-10T07:55:00.172Z,2.2
2022-08-10T07:56:48.281Z,2.2
2022-08-10T07:58:06.784Z,2.5
2022-08-10T08:01:39.203Z,2.5
2022-08-10T08:02:52.002Z,2.5
2022-08-10T08:04:05.118Z,2.5
2022-08-10T08:05:08.709Z,2.5
2022-08-10T08:06:17.286Z,2.3
2022-08-10T08:07:25.658Z,2.3
2022-08-10T08:08:34.023Z,2.3
2022-08-10T08:09:57.247Z,2.5
2022-08-10T08:10:50.940Z,2.5
2022-08-10T08:11:59.307Z,2.5
2022-08-10T08:13:07.873Z,2.4
2022-08-10T08:14:16.233Z,2.4
2022-08-10T08:16:16.041Z,2.4
2022-08-10T08:16:33.159Z,2.7
2022-08-10T08:17:41.529Z,2.7
2022-08-10T08:18:58.514Z,2.7
2022-08-10T08:19:58.494Z,2.7
2022-08-10T08:21:07.630Z,2.7
2022-08-10T08:24:03.084Z,2.7
2022-08-10T08:24:04.210Z,2.6
2022-08-10T08:25:10.968Z,2.6
2022-08-10T08:26:33.763Z,2.6
2022-08-10T08:27:42.323Z,2.6
2022-08-10T08:28:50.719Z,2.6
2022-08-10T08:29:59.063Z,2.6
2022-08-10T08:31:23.885Z,2.4
2022-08-10T08:32:51.400Z,2.4
2022-08-10T08:33:56.304Z,2.4
2022-08-10T08:35:04.891Z,2.8
2022-08-10T08:36:13.233Z,2.8
2022-08-10T08:38:29.065Z,2.8
2022-08-10T08:38:33.852Z,2.4
2022-08-10T08:39:38.602Z,2.4
2022-08-10T08:40:46.890Z,2.4
2022-08-10T08:41:55.466Z,2.1
2022-08-10T08:43:03.854Z,2.1
2022-08-10T08:44:12.223Z,2.1
2022-08-10T08:45:20.781Z,2
2022-08-10T08:46:29.140Z,2
2022-08-10T08:48:02.165Z,2
2022-08-10T08:48:46.094Z,1.7
2022-08-10T08:50:09.235Z,1.7
2022-08-10T08:51:02.824Z,1.7
2022-08-10T08:52:17.997Z,2
2022-08-10T08:53:22.068Z,2
2022-08-10T08:54:28.135Z,2
2022-08-10T08:55:50.122Z,2.4
2022-08-10T08:56:49.667Z,2.4
2022-08-10T08:57:53.431Z,2.4
2022-08-10T08:59:01.999Z,1.9
2022-08-10T09:00:10.355Z,1.9
2022-08-10T09:01:18.736Z,1.9
2022-08-10T09:02:27.306Z,2.3
2022-08-10T09:03:35.654Z,2.3
2022-08-10T09:04:44.024Z,2.3
2022-08-10T09:05:58.261Z,2.2
2022-08-10T09:07:00.950Z,2.2
2022-08-10T09:08:09.303Z,2.2
2022-08-10T09:09:17.859Z,2.5
2022-08-10T09:10:26.223Z,2.5
2022-08-10T09:11:34.582Z,2.5
2022-08-10T09:12:43.160Z,2.2
2022-08-10T09:13:51.521Z,2.2
2022-08-10T09:14:59.868Z,2.2
2022-08-10T09:16:08.451Z,2.1
2022-08-10T09:17:16.823Z,2.1
2022-08-10T09:18:25.189Z,2.1
2022-08-10T09:19:35.320Z,2.2
2022-08-10T09:20:42.111Z,2.2
2022-08-10T09:21:55.256Z,2.2
2022-08-10T09:22:59.053Z,2.7
2022-08-10T09:24:07.445Z,2.7
2022-08-10T09:25:15.792Z,2.7
2022-08-10T09:26:24.363Z,2.2
2022-08-10T09:27:33.905Z,2.2
2022-08-10T09:28:41.067Z,2.2
2022-08-10T09:29:49.645Z,2.4
2022-08-10T09:31:19.126Z,2.4
2022-08-10T09:35:39.296Z,2.4
2022-08-10T09:36:17.874Z,2.5
2022-08-10T09:36:18.711Z,2.5
2022-08-10T09:36:27.250Z,2.5
2022-08-10T09:36:40.611Z,2.8
2022-08-10T09:38:01.504Z,2.8
2022-08-10T09:38:57.019Z,2.8
2022-08-10T09:40:06.311Z,2.6
2022-08-10T09:41:14.048Z,2.6
2022-08-10T09:42:22.317Z,2.6
2022-08-10T09:43:30.895Z,2.4
2022-08-10T09:44:57.224Z,2.4
2022-08-10T09:45:47.625Z,2.4
2022-08-10T09:46:56.192Z,2.7
2022-08-10T09:48:04.568Z,2.7
2022-08-10T09:49:16.140Z,2.7
2022-08-10T09:50:21.496Z,2.8
2022-08-10T09:51:46.585Z,2.8
2022-08-10T09:52:38.341Z,2.8
2022-08-10T09:53:46.803Z,2.5
2022-08-10T09:54:55.187Z,2.5
2022-08-10T09:56:16.812Z,2.5
2022-08-10T09:57:43.712Z,3
2022-08-10T09:58:20.534Z,3
2022-08-10T09:59:59.281Z,3
2022-08-10T10:00:37.473Z,3.3
2022-08-10T10:01:56.351Z,3.3
2022-08-10T10:02:54.289Z,3.3
2022-08-10T10:04:02.789Z,2.9
2022-08-10T10:05:11.149Z,2.9
2022-08-10T10:06:19.514Z,2.9
2022-08-10T10:07:28.136Z,3.1
2022-08-10T10:08:39.515Z,3.1
2022-08-10T10:10:02.914Z,3.1
2022-08-10T10:11:12.531Z,3
2022-08-10T10:12:24.529Z,3
2022-08-10T10:13:41.812Z,3
2022-08-10T10:14:41.473Z,2.7
2022-08-10T10:15:49.940Z,2.7
2022-08-10T10:16:58.309Z,2.7
2022-08-10T10:18:06.871Z,2.7
2022-08-10T10:19:15.235Z,2.7
2022-08-10T10:20:24.359Z,2.7
2022-08-10T10:21:52.348Z,2.8
2022-08-10T10:22:41.332Z,2.8
2022-08-10T10:24:15.788Z,2.8
2022-08-10T10:24:58.378Z,2.9
2022-08-10T10:26:13.127Z,2.9
2022-08-10T10:27:16.401Z,2.9
2022-08-10T10:28:24.153Z,2.6
2022-08-10T10:29:57.732Z,2.6
2022-08-10T10:30:41.803Z,2.6
2022-08-10T10:31:50.945Z,2.8
2022-08-10T10:33:02.315Z,2.8
2022-08-10T10:34:10.677Z,2.8
2022-08-10T10:35:19.265Z,2.9
2022-08-10T10:36:27.636Z,2.9
2022-08-10T10:38:00.481Z,2.9
2022-08-10T10:38:44.575Z,2.7
2022-08-10T10:39:53.024Z,2.7
2022-08-10T10:41:01.317Z,2.7
2022-08-10T10:42:18.559Z,2.8
2022-08-10T10:43:18.252Z,2.8
2022-08-10T10:44:26.621Z,2.8
2022-08-10T10:45:37.881Z,2.9
2022-08-10T10:46:43.548Z,2.9
2022-08-10T10:47:51.909Z,2.9
2022-08-10T10:49:00.488Z,3
2022-08-10T10:50:08.846Z,3
2022-08-10T10:51:17.209Z,3
2022-08-10T10:52:25.798Z,2.8
2022-08-10T10:53:34.170Z,2.8
2022-08-10T10:54:42.540Z,2.8
2022-08-10T10:56:15.640Z,2.8
2022-08-10T10:56:59.506Z,2.8
2022-08-10T10:58:07.868Z,2.8
2022-08-10T10:59:54.655Z,2.5
2022-08-10T11:00:24.807Z,2.5
2022-08-10T11:01:33.188Z,2.5
2022-08-10T11:02:41.751Z,2.9
2022-08-10T11:03:53.077Z,2.9
2022-08-10T11:05:02.558Z,2.9
2022-08-10T11:06:11.990Z,2.5
2022-08-10T11:07:21.854Z,2.5
2022-08-10T11:08:29.677Z,2.5
2022-08-10T11:10:04.342Z,2.7
2022-08-10T11:10:47.264Z,2.7
2022-08-10T11:11:59.940Z,2.7
2022-08-10T11:14:22.941Z,2.8
2022-08-10T11:14:23.709Z,2.8
2022-08-10T11:15:19.416Z,2.8
2022-08-10T11:16:27.997Z,2.7
2022-08-10T11:17:36.455Z,2.7
2022-08-10T11:18:44.718Z,2.7
2022-08-10T11:20:00.116Z,3.1
2022-08-10T11:21:01.665Z,3.1
2022-08-10T11:22:13.371Z,3.1
2022-08-10T11:23:18.576Z,2.6
2022-08-10T11:24:43.059Z,2.6
2022-08-10T11:25:35.283Z,2.6
2022-08-10T11:26:43.873Z,3.1
2022-08-10T11:27:52.237Z,3.1
2022-08-10T11:29:00.597Z,3.1
2022-08-10T11:30:09.289Z,3
2022-08-10T11:31:17.513Z,3
2022-08-10T11:32:26.003Z,3
2022-08-10T11:33:42.785Z,2.6
2022-08-10T11:35:10.866Z,2.6
2022-08-10T11:35:58.447Z,2.6
2022-08-10T11:37:07.022Z,2.6
2022-08-10T11:38:29.961Z,2.6
2022-08-10T11:39:23.758Z,2.6
2022-08-10T11:40:32.312Z,2.4
2022-08-10T11:42:06.854Z,2.4
2022-08-10T11:42:53.092Z,2.4
2022-08-10T11:44:09.360Z,2.6
2022-08-10T11:45:17.747Z,2.6
2022-08-10T11:46:28.587Z,2.6
2022-08-10T11:47:34.922Z,2.4
2022-08-10T11:48:52.761Z,2.4
2022-08-10T11:49:52.231Z,2.4
2022-08-10T11:51:02.585Z,2.6
2022-08-10T11:52:14.074Z,2.6
2022-08-10T11:53:22.551Z,2.6
2022-08-10T11:54:31.134Z,2.6
2022-08-10T11:55:39.507Z,2.6
2022-08-10T11:56:47.965Z,2.6
2022-08-10T11:57:56.578Z,2.5
2022-08-10T11:59:16.514Z,2.5
2022-08-10T12:00:13.330Z,2.5
2022-08-10T12:01:21.931Z,2.7
2022-08-10T12:02:30.316Z,2.7
2022-08-10T12:03:38.674Z,2.7
2022-08-10T12:04:47.272Z,2.5
2022-08-10T12:05:55.624Z,2.5
2022-08-10T12:07:03.982Z,2.5
2022-08-10T12:10:03.367Z,2.6
2022-08-10T12:10:08.045Z,2.6
2022-08-10T12:10:29.352Z,2.6
2022-08-10T12:11:37.903Z,2.7
2022-08-10T12:12:46.285Z,2.7
2022-08-10T12:14:18.150Z,2.7
2022-08-10T12:15:03.237Z,2.5
2022-08-10T12:16:11.610Z,2.5
2022-08-10T12:17:19.978Z,2.5
2022-08-10T12:18:28.552Z,2.7
2022-08-10T12:20:00.038Z,2.7
2022-08-10T12:20:45.278Z,2.7
2022-08-10T12:21:53.845Z,2.6
2022-08-10T12:23:02.214Z,2.6
2022-08-10T12:24:10.609Z,2.6
2022-08-10T12:25:49.695Z,2.5
2022-08-10T12:26:27.528Z,2.5
2022-08-10T12:27:35.878Z,2.5
2022-08-10T12:28:49.729Z,2.8
2022-08-10T12:29:52.838Z,2.8
2022-08-10T12:31:01.213Z,2.8
2022-08-10T12:32:09.770Z,2.5
2022-08-10T12:33:18.143Z,2.5
2022-08-10T12:34:26.515Z,2.5
2022-08-10T12:35:35.087Z,2.7
2022-08-10T12:36:43.450Z,2.7
2022-08-10T12:37:51.811Z,2.7
2022-08-10T12:39:00.384Z,2.7
2022-08-10T12:40:34.926Z,2.7
2022-08-10T12:41:17.114Z,2.7
2022-08-10T12:42:27.672Z,2.8
2022-08-10T12:44:08.060Z,2.8
2022-08-10T12:44:42.810Z,2.8
2022-08-10T12:45:51.016Z,3.2
2022-08-10T12:46:59.387Z,3.2
2022-08-10T12:48:07.759Z,3.2
2022-08-10T12:49:16.317Z,3.2
2022-08-10T12:50:31.690Z,3.2
2022-08-10T12:51:33.047Z,3.2
2022-08-10T12:52:41.632Z,3
2022-08-10T12:53:49.979Z,3
2022-08-10T12:54:58.351Z,3
2022-08-10T12:56:06.894Z,2.9
2022-08-10T12:57:15.501Z,2.9
2022-08-10T12:58:58.437Z,2.9
2022-08-10T12:59:33.479Z,3.1
2022-08-10T13:00:59.759Z,3.1
2022-08-10T13:02:07.225Z,3.1
2022-08-10T13:02:59.579Z,2.9
2022-08-10T13:04:22.007Z,2.9
2022-08-10T13:05:16.722Z,2.9
2022-08-10T13:06:26.360Z,3
2022-08-10T13:08:03.415Z,3
2022-08-10T13:08:43.701Z,3
2022-08-10T13:09:55.432Z,3.3
2022-08-10T13:11:01.181Z,3.3
2022-08-10T13:12:37.590Z,3.3
2022-08-10T13:13:18.632Z,2.8
2022-08-10T13:14:27.195Z,2.8
2022-08-10T13:15:48.693Z,2.8
2022-08-10T13:16:44.630Z,2.8
2022-08-10T13:17:53.286Z,2.8
2022-08-10T13:19:01.809Z,2.8
2022-08-10T13:20:13.751Z,2.9
2022-08-10T13:21:19.776Z,2.9
2022-08-10T13:22:27.899Z,2.9
2022-08-10T13:23:36.474Z,2.8
2022-08-10T13:24:45.048Z,2.8
2022-08-10T13:25:53.530Z,2.8
2022-08-10T13:27:09.093Z,3.1
2022-08-10T13:28:36.757Z,3.1
2022-08-10T13:29:19.051Z,3.1
2022-08-10T13:30:32.141Z,3.1
2022-08-10T13:32:04.102Z,3.1
2022-08-10T13:32:44.557Z,3.1
2022-08-10T13:34:03.933Z,3.1
2022-08-10T13:35:02.223Z,3.1
2022-08-10T13:36:10.672Z,3.1
2022-08-10T13:37:19.302Z,3.2
2022-08-10T13:38:27.711Z,3.2
2022-08-10T13:39:57.503Z,3.2
2022-08-10T13:40:44.817Z,3.1
2022-08-10T13:41:53.224Z,3.1
2022-08-10T13:43:01.669Z,3.1
2022-08-10T13:44:10.330Z,3.2
2022-08-10T13:45:19.729Z,3.2
2022-08-10T13:46:28.268Z,3.2
2022-08-10T13:47:48.281Z,3.1
2022-08-10T13:48:45.276Z,3.1
2022-08-10T13:49:53.652Z,3.1
2022-08-10T13:51:02.218Z,3
2022-08-10T13:52:10.587Z,3
2022-08-10T13:53:18.963Z,3
2022-08-10T13:54:27.531Z,3
2022-08-10T13:55:45.944Z,3
2022-08-10T13:56:44.199Z,3
2022-08-10T13:57:52.756Z,2.9
2022-08-10T13:59:01.138Z,2.9
2022-08-10T14:00:35.817Z,2.9
2022-08-10T14:01:18.070Z,3
2022-08-10T14:02:26.399Z,3
2022-08-10T14:03:34.785Z,3
2022-08-10T14:04:43.337Z,2.7
2022-08-10T14:05:51.684Z,2.7
2022-08-10T14:07:00.019Z,2.7
2022-08-10T14:08:08.584Z,2.9
2022-08-10T14:09:16.989Z,2.9
2022-08-10T14:11:01.427Z,2.9
2022-08-10T14:11:33.857Z,3
2022-08-10T14:12:42.356Z,3
2022-08-10T14:13:50.621Z,3
2022-08-10T14:14:59.196Z,3.1
2022-08-10T14:16:07.551Z,3.1
2022-08-10T14:17:15.912Z,3.1
2022-08-10T14:18:24.491Z,2.6
2022-08-10T14:19:32.957Z,2.6
2022-08-10T14:20:41.181Z,2.6
2022-08-10T14:21:49.747Z,2.9
2022-08-10T14:22:58.125Z,2.9
2022-08-10T14:24:06.482Z,2.9
2022-08-10T14:25:15.043Z,3.4
2022-08-10T14:26:23.394Z,3.4
2022-08-10T14:28:01.775Z,3.4
2022-08-10T14:28:40.351Z,2.9
2022-08-10T15:02:38.040Z,0
2022-08-10T15:03:59.652Z,0
2022-08-10T15:04:48.547Z,0
2022-08-10T15:05:58.963Z,3.2
2022-08-10T15:07:11.522Z,3.2
2022-08-10T15:08:13.828Z,3.2
2022-08-10T15:09:22.400Z,3
2022-08-10T15:10:30.775Z,3
2022-08-10T15:12:12.652Z,3
2022-08-10T15:12:47.691Z,3.1
2022-08-10T15:14:03.953Z,3.1
2022-08-10T15:15:04.381Z,3.1
2022-08-10T15:16:13.666Z,3.3
2022-08-10T15:17:21.342Z,3.3
2022-08-10T15:18:29.719Z,3.3
2022-08-10T15:20:01.934Z,3.3
2022-08-10T15:20:46.628Z,3.3
2022-08-10T15:22:01.480Z,3.3
2022-08-10T15:23:03.533Z,3.4
2022-08-10T15:24:11.859Z,3.4
2022-08-10T15:25:24.506Z,3.4
2022-08-10T15:26:28.817Z,3.5
2022-08-10T15:27:53.255Z,3.5
2022-08-10T15:29:22.596Z,3.5
2022-08-10T15:29:56.911Z,3.2
2022-08-10T15:31:02.472Z,3.2
2022-08-10T15:32:10.819Z,3.2
2022-08-10T15:33:21.104Z,2.9
2022-08-10T15:34:28.741Z,2.9
2022-08-10T15:35:36.354Z,2.9
2022-08-10T15:36:44.658Z,3.5
2022-08-10T15:37:54.635Z,3.5
2022-08-10T15:39:01.413Z,3.5
2022-08-10T15:40:23.028Z,3.4
2022-08-10T15:41:18.453Z,3.4
2022-08-10T15:42:26.698Z,3.4
2022-08-10T15:43:37.015Z,3.4
2022-08-10T15:44:43.643Z,3.4
2022-08-10T15:45:52.011Z,3.4
2022-08-10T15:47:00.590Z,3.4
2022-08-10T15:48:08.961Z,3.4
2022-08-10T15:49:17.318Z,3.4
2022-08-10T15:50:25.891Z,3.1
2022-08-10T15:51:53.300Z,3.1
2022-08-10T15:53:00.373Z,3.1
2022-08-10T15:53:51.191Z,3.4
2022-08-10T15:54:59.569Z,3.4
2022-08-10T15:56:07.925Z,3.4
2022-08-10T15:57:16.499Z,3.7
2022-08-10T15:58:37.538Z,3.7
2022-08-10T15:59:33.237Z,3.7
2022-08-10T16:00:41.820Z,3.3
2022-08-10T16:02:05.138Z,3.3
2022-08-10T16:02:58.616Z,3.3
2022-08-10T16:04:08.184Z,3.4
2022-08-10T16:05:15.519Z,3.4
2022-08-10T16:06:23.937Z,3.4
2022-08-10T16:07:38.920Z,3.1
2022-08-10T16:08:50.304Z,3.1
2022-08-10T16:10:10.469Z,3.1
2022-08-10T16:10:59.166Z,3.3
2022-08-10T16:12:07.624Z,3.3
2022-08-10T16:13:51.210Z,3.3
2022-08-10T16:14:25.084Z,3.1
2022-08-10T16:15:33.442Z,3.1
2022-08-10T16:16:41.807Z,3.1
2022-08-10T16:17:55.207Z,3.4
2022-08-10T16:18:58.773Z,3.4
2022-08-10T16:20:07.129Z,3.4
2022-08-10T16:21:15.692Z,3.2
2022-08-10T16:22:33.764Z,3.2
2022-08-10T16:23:32.472Z,3.2
2022-08-10T16:24:41.031Z,7.6
2022-08-10T16:25:52.800Z,7.6
2022-08-10T16:26:57.795Z,7.6
2022-08-10T16:28:06.381Z,3.3
2022-08-10T16:29:14.789Z,3.3
2022-08-10T16:30:23.166Z,3.3
2022-08-10T16:31:31.799Z,3.7
2022-08-10T16:32:40.172Z,3.7
2022-08-10T16:33:52.700Z,3.7
2022-08-10T16:34:57.168Z,3.7
2022-08-10T16:36:05.533Z,3.7